sensor_id;sensor_type;location;lat;lon;timestamp;temperature;humidity
3919;DHT22;1974;48.670;8.994;2023-02-15T00:00:27;2.30;99.90
3919;DHT22;1974;48.670;8.994;2023-02-15T00:02:54;2.30;99.90
3919;DHT22;1974;48.670;8.994;2023-02-15T00:05:21;2.30;99.90
3919;DHT22;1974;48.670;8.994;2023-02-15T00:07:49;2.30;99.90
3919;DHT22;1974;48.670;8.994;2023-02-15T00:10:16;2.30;99.90
3919;DHT22;1974;48.670;8.994;2023-02-15T00:12:42;2.30;99.90
3919;DHT22;1974;48.670;8.994;2023-02-15T00:15:10;2.30;99.90
3919;DHT22;1974;48.670;8.994;2023-02-15T00:17:38;2.30;99.90
3919;DHT22;1974;48.670;8.994;2023-02-15T00:20:06;2.20;99.90
3919;DHT22;1974;48.670;8.994;2023-02-15T00:22:33;2.20;99.90
3919;DHT22;1974;48.670;8.994;2023-02-15T00:25:01;2.20;99.90
3919;DHT22;1974;48.670;8.994;2023-02-15T00:27:27;2.20;99.90
3919;DHT22;1974;48.670;8.994;2023-02-15T00:29:54;2.20;99.90
3919;DHT22;1974;48.670;8.994;2023-02-15T00:32:21;2.20;99.90
3919;DHT22;1974;48.670;8.994;2023-02-15T00:34:48;2.20;99.90
3919;DHT22;1974;48.670;8.994;2023-02-15T00:37:14;2.20;99.90
3919;DHT22;1974;48.670;8.994;2023-02-15T00:39:41;2.10;99.90
3919;DHT22;1974;48.670;8.994;2023-02-15T00:42:09;2.10;99.90
3919;DHT22;1974;48.670;8.994;2023-02-15T00:44:36;2.10;99.90
3919;DHT22;1974;48.670;8.994;2023-02-15T00:47:03;2.10;99.90
3919;DHT22;1974;48.670;8.994;2023-02-15T00:49:29;2.10;99.90
3919;DHT22;1974;48.670;8.994;2023-02-15T00:51:56;2.00;99.90
3919;DHT22;1974;48.670;8.994;2023-02-15T00:54:23;2.00;99.90
3919;DHT22;1974;48.670;8.994;2023-02-15T00:56:50;2.10;99.90
3919;DHT22;1974;48.670;8.994;2023-02-15T00:59:18;2.00;99.90
3919;DHT22;1974;48.670;8.994;2023-02-15T01:01:44;2.00;99.90
3919;DHT22;1974;48.670;8.994;2023-02-15T01:04:11;1.90;99.90
3919;DHT22;1974;48.670;8.994;2023-02-15T01:06:38;1.90;99.90
3919;DHT22;1974;48.670;8.994;2023-02-15T01:09:05;1.90;99.90
3919;DHT22;1974;48.670;8.994;2023-02-15T01:11:31;1.90;99.90
3919;DHT22;1974;48.670;8.994;2023-02-15T01:13:58;1.90;99.90
3919;DHT22;1974;48.670;8.994;2023-02-15T01:16:27;1.80;99.90
3919;DHT22;1974;48.670;8.994;2023-02-15T01:18:55;1.80;99.90
3919;DHT22;1974;48.670;8.994;2023-02-15T01:21:24;1.80;99.90
3919;DHT22;1974;48.670;8.994;2023-02-15T01:23:50;1.80;99.90
3919;DHT22;1974;48.670;8.994;2023-02-15T01:26:17;1.80;99.90
3919;DHT22;1974;48.670;8.994;2023-02-15T01:28:44;1.80;99.90
3919;DHT22;1974;48.670;8.994;2023-02-15T01:31:13;1.80;99.90
3919;DHT22;1974;48.670;8.994;2023-02-15T01:33:42;1.80;99.90
3919;DHT22;1974;48.670;8.994;2023-02-15T01:36:08;1.80;99.90
3919;DHT22;1974;48.670;8.994;2023-02-15T01:38:35;1.80;99.90
3919;DHT22;1974;48.670;8.994;2023-02-15T01:41:02;1.80;99.90
3919;DHT22;1974;48.670;8.994;2023-02-15T01:43:50;1.70;99.90
3919;DHT22;1974;48.670;8.994;2023-02-15T01:46:20;1.70;99.90
3919;DHT22;1974;48.670;8.994;2023-02-15T01:48:51;1.70;99.90
3919;DHT22;1974;48.670;8.994;2023-02-15T01:51:21;1.70;99.90
3919;DHT22;1974;48.670;8.994;2023-02-15T01:53:52;1.70;99.90
3919;DHT22;1974;48.670;8.994;2023-02-15T01:56:23;1.70;99.90
3919;DHT22;1974;48.670;8.994;2023-02-15T01:58:52;1.60;99.90
3919;DHT22;1974;48.670;8.994;2023-02-15T02:01:20;1.70;99.90
3919;DHT22;1974;48.670;8.994;2023-02-15T02:03:56;1.70;99.90
3919;DHT22;1974;48.670;8.994;2023-02-15T02:06:26;1.60;99.90
3919;DHT22;1974;48.670;8.994;2023-02-15T02:08:53;1.60;99.90
3919;DHT22;1974;48.670;8.994;2023-02-15T02:11:21;1.50;99.90
3919;DHT22;1974;48.670;8.994;2023-02-15T02:13:48;1.50;99.90
3919;DHT22;1974;48.670;8.994;2023-02-15T02:16:20;1.50;99.90
3919;DHT22;1974;48.670;8.994;2023-02-15T02:19:01;1.50;99.90
3919;DHT22;1974;48.670;8.994;2023-02-15T02:25:06;1.40;99.90
3919;DHT22;1974;48.670;8.994;2023-02-15T02:27:39;1.40;99.90
3919;DHT22;1974;48.670;8.994;2023-02-15T02:33:32;1.40;99.90
3919;DHT22;1974;48.670;8.994;2023-02-15T02:36:14;1.40;99.90
3919;DHT22;1974;48.670;8.994;2023-02-15T02:38:51;1.40;99.90
3919;DHT22;1974;48.670;8.994;2023-02-15T02:41:29;1.40;99.90
3919;DHT22;1974;48.670;8.994;2023-02-15T02:44:04;1.30;99.90
3919;DHT22;1974;48.670;8.994;2023-02-15T02:46:38;1.30;99.90
3919;DHT22;1974;48.670;8.994;2023-02-15T02:49:08;1.30;99.90
3919;DHT22;1974;48.670;8.994;2023-02-15T02:51:35;1.30;99.90
3919;DHT22;1974;48.670;8.994;2023-02-15T02:54:05;1.30;99.90
3919;DHT22;1974;48.670;8.994;2023-02-15T02:56:36;1.40;99.90
3919;DHT22;1974;48.670;8.994;2023-02-15T02:59:09;1.40;99.90
3919;DHT22;1974;48.670;8.994;2023-02-15T03:01:39;1.40;99.90
3919;DHT22;1974;48.670;8.994;2023-02-15T03:04:11;1.40;99.90
3919;DHT22;1974;48.670;8.994;2023-02-15T03:06:44;1.40;99.90
3919;DHT22;1974;48.670;8.994;2023-02-15T03:09:15;1.40;99.90
3919;DHT22;1974;48.670;8.994;2023-02-15T03:11:44;1.40;99.90
3919;DHT22;1974;48.670;8.994;2023-02-15T03:14:12;1.40;99.90
3919;DHT22;1974;48.670;8.994;2023-02-15T03:16:42;1.40;99.90
3919;DHT22;1974;48.670;8.994;2023-02-15T03:19:14;1.30;99.90
3919;DHT22;1974;48.670;8.994;2023-02-15T03:21:45;1.30;99.90
3919;DHT22;1974;48.670;8.994;2023-02-15T03:24:17;1.20;99.90
3919;DHT22;1974;48.670;8.994;2023-02-15T03:26:48;1.20;99.90
3919;DHT22;1974;48.670;8.994;2023-02-15T03:29:17;1.20;99.90
3919;DHT22;1974;48.670;8.994;2023-02-15T03:31:50;1.10;99.90
3919;DHT22;1974;48.670;8.994;2023-02-15T03:34:21;1.10;99.90
3919;DHT22;1974;48.670;8.994;2023-02-15T03:36:55;1.10;99.90
3919;DHT22;1974;48.670;8.994;2023-02-15T03:39:29;1.00;99.90
3919;DHT22;1974;48.670;8.994;2023-02-15T03:42:00;1.00;99.90
3919;DHT22;1974;48.670;8.994;2023-02-15T03:44:30;1.00;99.90
3919;DHT22;1974;48.670;8.994;2023-02-15T03:47:02;1.00;99.90
3919;DHT22;1974;48.670;8.994;2023-02-15T03:49:40;0.90;99.90
3919;DHT22;1974;48.670;8.994;2023-02-15T03:52:10;0.90;99.90
3919;DHT22;1974;48.670;8.994;2023-02-15T03:54:38;0.90;99.90
3919;DHT22;1974;48.670;8.994;2023-02-15T03:57:11;0.90;99.90
3919;DHT22;1974;48.670;8.994;2023-02-15T03:59:57;0.90;99.90
3919;DHT22;1974;48.670;8.994;2023-02-15T04:02:49;0.90;99.90
3919;DHT22;1974;48.670;8.994;2023-02-15T04:05:18;0.90;99.90
3919;DHT22;1974;48.670;8.994;2023-02-15T04:07:45;0.90;99.90
3919;DHT22;1974;48.670;8.994;2023-02-15T04:10:12;0.80;99.90
3919;DHT22;1974;48.670;8.994;2023-02-15T04:12:56;0.90;99.90
3919;DHT22;1974;48.670;8.994;2023-02-15T04:15:23;0.90;99.90
3919;DHT22;1974;48.670;8.994;2023-02-15T04:18:07;0.80;99.90
3919;DHT22;1974;48.670;8.994;2023-02-15T04:20:36;0.80;99.90
3919;DHT22;1974;48.670;8.994;2023-02-15T04:23:20;0.80;99.90
3919;DHT22;1974;48.670;8.994;2023-02-15T04:26:04;0.80;99.90
3919;DHT22;1974;48.670;8.994;2023-02-15T04:28:31;0.80;99.90
3919;DHT22;1974;48.670;8.994;2023-02-15T04:30:58;0.80;99.90
3919;DHT22;1974;48.670;8.994;2023-02-15T04:33:25;0.80;99.90
3919;DHT22;1974;48.670;8.994;2023-02-15T04:35:53;0.70;99.90
3919;DHT22;1974;48.670;8.994;2023-02-15T04:38:19;0.70;99.90
3919;DHT22;1974;48.670;8.994;2023-02-15T04:40:49;0.70;99.90
3919;DHT22;1974;48.670;8.994;2023-02-15T04:43:17;0.60;99.90
3919;DHT22;1974;48.670;8.994;2023-02-15T04:45:47;0.70;99.90
3919;DHT22;1974;48.670;8.994;2023-02-15T04:48:15;0.70;99.90
3919;DHT22;1974;48.670;8.994;2023-02-15T04:50:42;0.70;99.90
3919;DHT22;1974;48.670;8.994;2023-02-15T04:53:10;0.70;99.90
3919;DHT22;1974;48.670;8.994;2023-02-15T04:55:37;0.60;99.90
3919;DHT22;1974;48.670;8.994;2023-02-15T04:58:04;0.60;99.90
3919;DHT22;1974;48.670;8.994;2023-02-15T05:00:31;0.60;99.90
3919;DHT22;1974;48.670;8.994;2023-02-15T05:02:58;0.60;99.90
3919;DHT22;1974;48.670;8.994;2023-02-15T05:05:24;0.60;99.90
3919;DHT22;1974;48.670;8.994;2023-02-15T05:07:51;0.60;99.90
3919;DHT22;1974;48.670;8.994;2023-02-15T05:10:19;0.60;99.90
3919;DHT22;1974;48.670;8.994;2023-02-15T05:12:46;0.60;99.90
3919;DHT22;1974;48.670;8.994;2023-02-15T05:15:13;0.60;99.90
3919;DHT22;1974;48.670;8.994;2023-02-15T05:17:40;0.60;99.90
3919;DHT22;1974;48.670;8.994;2023-02-15T05:20:07;0.60;99.90
3919;DHT22;1974;48.670;8.994;2023-02-15T05:22:34;0.60;99.90
3919;DHT22;1974;48.670;8.994;2023-02-15T05:25:01;0.60;99.90
3919;DHT22;1974;48.670;8.994;2023-02-15T05:28:01;0.50;99.90
3919;DHT22;1974;48.670;8.994;2023-02-15T05:30:46;0.50;99.90
3919;DHT22;1974;48.670;8.994;2023-02-15T05:33:13;0.50;99.90
3919;DHT22;1974;48.670;8.994;2023-02-15T05:35:40;0.50;99.90
3919;DHT22;1974;48.670;8.994;2023-02-15T05:38:07;0.40;99.90
3919;DHT22;1974;48.670;8.994;2023-02-15T05:40:33;0.50;99.90
3919;DHT22;1974;48.670;8.994;2023-02-15T05:43:01;0.40;99.90
3919;DHT22;1974;48.670;8.994;2023-02-15T05:45:28;0.40;99.90
3919;DHT22;1974;48.670;8.994;2023-02-15T05:47:55;0.40;99.90
3919;DHT22;1974;48.670;8.994;2023-02-15T05:50:23;0.40;99.90
3919;DHT22;1974;48.670;8.994;2023-02-15T05:52:50;0.30;99.90
3919;DHT22;1974;48.670;8.994;2023-02-15T05:55:17;0.30;99.90
3919;DHT22;1974;48.670;8.994;2023-02-15T05:57:44;0.30;99.90
3919;DHT22;1974;48.670;8.994;2023-02-15T06:00:13;0.30;99.90
3919;DHT22;1974;48.670;8.994;2023-02-15T06:02:40;0.30;99.90
3919;DHT22;1974;48.670;8.994;2023-02-15T06:05:08;0.40;99.90
3919;DHT22;1974;48.670;8.994;2023-02-15T06:07:34;0.40;99.90
3919;DHT22;1974;48.670;8.994;2023-02-15T06:10:02;0.30;99.90
3919;DHT22;1974;48.670;8.994;2023-02-15T06:12:28;0.40;99.90
3919;DHT22;1974;48.670;8.994;2023-02-15T06:14:56;0.30;99.90
3919;DHT22;1974;48.670;8.994;2023-02-15T06:17:24;0.40;99.90
3919;DHT22;1974;48.670;8.994;2023-02-15T06:19:50;0.30;99.90
3919;DHT22;1974;48.670;8.994;2023-02-15T06:22:17;0.30;99.90
3919;DHT22;1974;48.670;8.994;2023-02-15T06:24:45;0.30;99.90
3919;DHT22;1974;48.670;8.994;2023-02-15T06:27:12;0.30;99.90
3919;DHT22;1974;48.670;8.994;2023-02-15T06:29:39;0.30;99.90
3919;DHT22;1974;48.670;8.994;2023-02-15T06:32:06;0.30;99.90
3919;DHT22;1974;48.670;8.994;2023-02-15T06:34:34;0.30;99.90
3919;DHT22;1974;48.670;8.994;2023-02-15T06:37:01;0.40;99.90
3919;DHT22;1974;48.670;8.994;2023-02-15T06:39:28;0.40;99.90
3919;DHT22;1974;48.670;8.994;2023-02-15T06:41:55;0.40;99.90
3919;DHT22;1974;48.670;8.994;2023-02-15T06:44:22;0.30;99.90
3919;DHT22;1974;48.670;8.994;2023-02-15T06:46:49;0.40;99.90
3919;DHT22;1974;48.670;8.994;2023-02-15T06:49:16;0.40;99.90
3919;DHT22;1974;48.670;8.994;2023-02-15T06:51:44;0.40;99.90
3919;DHT22;1974;48.670;8.994;2023-02-15T06:54:10;0.40;99.90
3919;DHT22;1974;48.670;8.994;2023-02-15T06:56:37;0.50;99.90
3919;DHT22;1974;48.670;8.994;2023-02-15T06:59:04;0.50;99.90
3919;DHT22;1974;48.670;8.994;2023-02-15T07:01:31;0.50;99.90
3919;DHT22;1974;48.670;8.994;2023-02-15T07:03:58;0.50;99.90
3919;DHT22;1974;48.670;8.994;2023-02-15T07:06:24;0.60;99.90
3919;DHT22;1974;48.670;8.994;2023-02-15T07:08:53;0.70;99.90
3919;DHT22;1974;48.670;8.994;2023-02-15T07:11:19;0.70;99.90
3919;DHT22;1974;48.670;8.994;2023-02-15T07:14:03;0.70;99.90
3919;DHT22;1974;48.670;8.994;2023-02-15T07:16:30;0.70;99.90
3919;DHT22;1974;48.670;8.994;2023-02-15T07:18:57;0.80;99.90
3919;DHT22;1974;48.670;8.994;2023-02-15T07:21:24;0.80;99.90
3919;DHT22;1974;48.670;8.994;2023-02-15T07:23:51;0.80;99.90
3919;DHT22;1974;48.670;8.994;2023-02-15T07:26:19;0.80;99.90
3919;DHT22;1974;48.670;8.994;2023-02-15T07:28:46;0.90;99.90
3919;DHT22;1974;48.670;8.994;2023-02-15T07:31:12;0.90;99.90
3919;DHT22;1974;48.670;8.994;2023-02-15T07:33:39;1.00;99.90
3919;DHT22;1974;48.670;8.994;2023-02-15T07:36:06;1.00;99.90
3919;DHT22;1974;48.670;8.994;2023-02-15T07:38:37;1.00;99.90
3919;DHT22;1974;48.670;8.994;2023-02-15T07:41:05;1.10;99.90
3919;DHT22;1974;48.670;8.994;2023-02-15T07:43:36;1.10;99.90
3919;DHT22;1974;48.670;8.994;2023-02-15T07:46:04;1.20;99.90
3919;DHT22;1974;48.670;8.994;2023-02-15T07:48:31;1.30;99.90
3919;DHT22;1974;48.670;8.994;2023-02-15T07:50:59;1.30;99.90
3919;DHT22;1974;48.670;8.994;2023-02-15T07:53:25;1.40;99.90
3919;DHT22;1974;48.670;8.994;2023-02-15T07:55:52;1.50;99.90
3919;DHT22;1974;48.670;8.994;2023-02-15T07:58:20;1.50;99.90
3919;DHT22;1974;48.670;8.994;2023-02-15T08:01:08;1.60;99.90
3919;DHT22;1974;48.670;8.994;2023-02-15T08:03:35;1.60;99.90
3919;DHT22;1974;48.670;8.994;2023-02-15T08:06:02;1.60;99.90
3919;DHT22;1974;48.670;8.994;2023-02-15T08:08:28;1.60;99.90
3919;DHT22;1974;48.670;8.994;2023-02-15T08:10:59;1.60;99.90
3919;DHT22;1974;48.670;8.994;2023-02-15T08:13:45;1.60;99.90
3919;DHT22;1974;48.670;8.994;2023-02-15T08:16:27;1.70;99.90
3919;DHT22;1974;48.670;8.994;2023-02-15T08:18:55;1.70;99.90
3919;DHT22;1974;48.670;8.994;2023-02-15T08:21:22;1.70;99.90
3919;DHT22;1974;48.670;8.994;2023-02-15T08:23:49;1.70;99.90
3919;DHT22;1974;48.670;8.994;2023-02-15T08:26:16;1.70;99.90
3919;DHT22;1974;48.670;8.994;2023-02-15T08:28:43;1.80;99.90
3919;DHT22;1974;48.670;8.994;2023-02-15T08:31:13;1.90;99.90
3919;DHT22;1974;48.670;8.994;2023-02-15T08:33:42;1.90;99.90
3919;DHT22;1974;48.670;8.994;2023-02-15T08:36:11;2.00;99.90
3919;DHT22;1974;48.670;8.994;2023-02-15T08:38:38;2.10;99.90
3919;DHT22;1974;48.670;8.994;2023-02-15T08:41:13;2.20;99.90
3919;DHT22;1974;48.670;8.994;2023-02-15T08:43:41;2.40;99.90
3919;DHT22;1974;48.670;8.994;2023-02-15T08:46:09;2.50;99.90
3919;DHT22;1974;48.670;8.994;2023-02-15T08:48:36;2.60;99.90
3919;DHT22;1974;48.670;8.994;2023-02-15T08:51:09;2.80;99.90
3919;DHT22;1974;48.670;8.994;2023-02-15T08:53:37;3.00;99.90
3919;DHT22;1974;48.670;8.994;2023-02-15T08:56:04;3.20;99.90
3919;DHT22;1974;48.670;8.994;2023-02-15T08:58:32;3.50;99.90
3919;DHT22;1974;48.670;8.994;2023-02-15T09:00:59;3.70;99.90
3919;DHT22;1974;48.670;8.994;2023-02-15T09:03:27;4.00;99.90
3919;DHT22;1974;48.670;8.994;2023-02-15T09:05:58;4.50;99.90
3919;DHT22;1974;48.670;8.994;2023-02-15T09:08:26;5.10;99.90
3919;DHT22;1974;48.670;8.994;2023-02-15T09:10:54;5.80;99.90
3919;DHT22;1974;48.670;8.994;2023-02-15T09:13:21;6.80;99.90
3919;DHT22;1974;48.670;8.994;2023-02-15T09:15:47;7.90;99.90
3919;DHT22;1974;48.670;8.994;2023-02-15T09:18:14;9.10;99.90
3919;DHT22;1974;48.670;8.994;2023-02-15T09:20:43;10.50;99.90
3919;DHT22;1974;48.670;8.994;2023-02-15T09:23:10;11.70;99.90
3919;DHT22;1974;48.670;8.994;2023-02-15T09:25:38;12.80;99.90
3919;DHT22;1974;48.670;8.994;2023-02-15T09:28:05;14.00;99.90
3919;DHT22;1974;48.670;8.994;2023-02-15T09:30:33;15.20;99.90
3919;DHT22;1974;48.670;8.994;2023-02-15T09:32:59;16.50;97.50
3919;DHT22;1974;48.670;8.994;2023-02-15T09:35:26;18.00;91.20
3919;DHT22;1974;48.670;8.994;2023-02-15T09:37:53;19.20;80.90
3919;DHT22;1974;48.670;8.994;2023-02-15T09:40:20;20.40;73.50
3919;DHT22;1974;48.670;8.994;2023-02-15T09:43:04;21.40;68.50
3919;DHT22;1974;48.670;8.994;2023-02-15T09:45:53;22.20;59.40
3919;DHT22;1974;48.670;8.994;2023-02-15T09:48:35;22.60;55.80
3919;DHT22;1974;48.670;8.994;2023-02-15T09:51:20;22.80;54.40
3919;DHT22;1974;48.670;8.994;2023-02-15T09:54:04;23.00;54.00
3919;DHT22;1974;48.670;8.994;2023-02-15T09:56:40;23.10;53.80
3919;DHT22;1974;48.670;8.994;2023-02-15T09:59:15;23.30;54.30
3919;DHT22;1974;48.670;8.994;2023-02-15T10:01:51;23.40;54.00
3919;DHT22;1974;48.670;8.994;2023-02-15T10:04:44;23.10;51.10
3919;DHT22;1974;48.670;8.994;2023-02-15T10:07:27;22.60;53.00
3919;DHT22;1974;48.670;8.994;2023-02-15T10:10:03;22.20;53.00
3919;DHT22;1974;48.670;8.994;2023-02-15T10:12:47;21.40;54.60
3919;DHT22;1974;48.670;8.994;2023-02-15T10:15:29;21.00;56.50
3919;DHT22;1974;48.670;8.994;2023-02-15T10:18:17;20.50;56.10
3919;DHT22;1974;48.670;8.994;2023-02-15T10:20:55;20.60;54.20
3919;DHT22;1974;48.670;8.994;2023-02-15T10:23:37;21.10;54.10
3919;DHT22;1974;48.670;8.994;2023-02-15T10:26:12;21.90;52.50
3919;DHT22;1974;48.670;8.994;2023-02-15T10:28:45;22.60;53.20
3919;DHT22;1974;48.670;8.994;2023-02-15T10:31:23;23.50;50.40
3919;DHT22;1974;48.670;8.994;2023-02-15T10:34:03;24.40;49.30
3919;DHT22;1974;48.670;8.994;2023-02-15T10:36:45;24.90;48.50
3919;DHT22;1974;48.670;8.994;2023-02-15T10:39:20;25.30;47.70
3919;DHT22;1974;48.670;8.994;2023-02-15T10:41:53;25.30;47.10
3919;DHT22;1974;48.670;8.994;2023-02-15T10:44:36;25.40;47.30
3919;DHT22;1974;48.670;8.994;2023-02-15T10:50:24;25.30;45.80
3919;DHT22;1974;48.670;8.994;2023-02-15T10:53:04;25.20;46.10
3919;DHT22;1974;48.670;8.994;2023-02-15T10:55:45;25.20;46.00
3919;DHT22;1974;48.670;8.994;2023-02-15T10:58:18;25.10;44.80
3919;DHT22;1974;48.670;8.994;2023-02-15T11:00:54;24.70;45.20
3919;DHT22;1974;48.670;8.994;2023-02-15T11:03:46;23.90;45.90
3919;DHT22;1974;48.670;8.994;2023-02-15T11:06:19;22.90;46.30
3919;DHT22;1974;48.670;8.994;2023-02-15T11:08:47;21.60;47.70
3919;DHT22;1974;48.670;8.994;2023-02-15T11:11:22;20.30;49.80
3919;DHT22;1974;48.670;8.994;2023-02-15T11:13:52;19.20;51.20
3919;DHT22;1974;48.670;8.994;2023-02-15T11:16:23;18.30;52.10
3919;DHT22;1974;48.670;8.994;2023-02-15T11:18:55;17.30;54.40
3919;DHT22;1974;48.670;8.994;2023-02-15T11:21:27;16.50;54.60
3919;DHT22;1974;48.670;8.994;2023-02-15T11:23:55;16.00;54.90
3919;DHT22;1974;48.670;8.994;2023-02-15T11:26:28;15.40;56.90
3919;DHT22;1974;48.670;8.994;2023-02-15T11:28:59;15.00;57.80
3919;DHT22;1974;48.670;8.994;2023-02-15T11:31:42;14.80;57.50
3919;DHT22;1974;48.670;8.994;2023-02-15T11:34:17;14.50;58.90
3919;DHT22;1974;48.670;8.994;2023-02-15T11:36:47;14.20;59.50
3919;DHT22;1974;48.670;8.994;2023-02-15T11:39:17;14.00;59.90
3919;DHT22;1974;48.670;8.994;2023-02-15T11:41:47;13.90;58.30
3919;DHT22;1974;48.670;8.994;2023-02-15T11:44:20;13.90;58.90
3919;DHT22;1974;48.670;8.994;2023-02-15T11:46:48;13.80;59.40
3919;DHT22;1974;48.670;8.994;2023-02-15T11:49:21;13.70;59.60
3919;DHT22;1974;48.670;8.994;2023-02-15T11:51:49;13.70;61.00
3919;DHT22;1974;48.670;8.994;2023-02-15T11:54:17;13.70;60.00
3919;DHT22;1974;48.670;8.994;2023-02-15T11:56:46;13.60;61.10
3919;DHT22;1974;48.670;8.994;2023-02-15T11:59:18;13.60;62.10
3919;DHT22;1974;48.670;8.994;2023-02-15T12:01:47;13.50;61.90
3919;DHT22;1974;48.670;8.994;2023-02-15T12:04:20;13.50;62.00
3919;DHT22;1974;48.670;8.994;2023-02-15T12:06:53;13.40;62.10
3919;DHT22;1974;48.670;8.994;2023-02-15T12:09:28;13.40;64.60
3919;DHT22;1974;48.670;8.994;2023-02-15T12:12:20;13.30;63.90
3919;DHT22;1974;48.670;8.994;2023-02-15T12:14:48;13.10;62.70
3919;DHT22;1974;48.670;8.994;2023-02-15T12:17:16;13.10;63.10
3919;DHT22;1974;48.670;8.994;2023-02-15T12:19:44;13.00;62.50
3919;DHT22;1974;48.670;8.994;2023-02-15T12:22:21;12.90;63.80
3919;DHT22;1974;48.670;8.994;2023-02-15T12:24:50;12.90;64.80
3919;DHT22;1974;48.670;8.994;2023-02-15T12:27:20;12.90;65.90
3919;DHT22;1974;48.670;8.994;2023-02-15T12:29:51;12.80;65.80
3919;DHT22;1974;48.670;8.994;2023-02-15T12:32:22;12.80;63.50
3919;DHT22;1974;48.670;8.994;2023-02-15T12:34:51;12.70;64.90
3919;DHT22;1974;48.670;8.994;2023-02-15T12:37:23;12.70;62.80
3919;DHT22;1974;48.670;8.994;2023-02-15T12:39:54;12.60;62.80
3919;DHT22;1974;48.670;8.994;2023-02-15T12:42:21;12.60;63.30
3919;DHT22;1974;48.670;8.994;2023-02-15T12:44:57;12.60;64.50
3919;DHT22;1974;48.670;8.994;2023-02-15T12:47:24;12.40;65.10
3919;DHT22;1974;48.670;8.994;2023-02-15T12:50:21;12.30;65.90
3919;DHT22;1974;48.670;8.994;2023-02-15T12:52:50;12.30;65.50
3919;DHT22;1974;48.670;8.994;2023-02-15T12:55:21;12.20;65.90
3919;DHT22;1974;48.670;8.994;2023-02-15T12:57:48;12.20;64.30
3919;DHT22;1974;48.670;8.994;2023-02-15T13:00:27;12.10;64.10
3919;DHT22;1974;48.670;8.994;2023-02-15T13:02:57;12.00;63.00
3919;DHT22;1974;48.670;8.994;2023-02-15T13:05:31;12.10;61.40
3919;DHT22;1974;48.670;8.994;2023-02-15T13:08:00;12.10;58.30
3919;DHT22;1974;48.670;8.994;2023-02-15T13:10:29;12.10;59.00
3919;DHT22;1974;48.670;8.994;2023-02-15T13:12:57;12.10;59.50
3919;DHT22;1974;48.670;8.994;2023-02-15T13:15:33;12.30;58.70
3919;DHT22;1974;48.670;8.994;2023-02-15T13:18:02;12.30;59.00
3919;DHT22;1974;48.670;8.994;2023-02-15T13:20:32;12.20;59.70
3919;DHT22;1974;48.670;8.994;2023-02-15T13:23:04;12.00;61.80
3919;DHT22;1974;48.670;8.994;2023-02-15T13:25:36;11.90;61.80
3919;DHT22;1974;48.670;8.994;2023-02-15T13:28:09;11.90;63.20
3919;DHT22;1974;48.670;8.994;2023-02-15T13:30:38;11.80;62.70
3919;DHT22;1974;48.670;8.994;2023-02-15T13:33:14;11.80;62.10
3919;DHT22;1974;48.670;8.994;2023-02-15T13:35:49;11.90;62.00
3919;DHT22;1974;48.670;8.994;2023-02-15T13:38:27;11.90;62.90
3919;DHT22;1974;48.670;8.994;2023-02-15T13:41:04;12.00;62.60
3919;DHT22;1974;48.670;8.994;2023-02-15T13:43:40;12.00;63.60
3919;DHT22;1974;48.670;8.994;2023-02-15T13:46:20;11.90;62.60
3919;DHT22;1974;48.670;8.994;2023-02-15T13:48:56;11.90;63.70
3919;DHT22;1974;48.670;8.994;2023-02-15T13:51:31;11.90;64.30
3919;DHT22;1974;48.670;8.994;2023-02-15T13:54:32;11.90;64.90
3919;DHT22;1974;48.670;8.994;2023-02-15T13:57:19;11.80;65.00
3919;DHT22;1974;48.670;8.994;2023-02-15T13:59:58;11.90;68.10
3919;DHT22;1974;48.670;8.994;2023-02-15T14:02:55;12.10;69.50
3919;DHT22;1974;48.670;8.994;2023-02-15T14:05:35;12.30;70.10
3919;DHT22;1974;48.670;8.994;2023-02-15T14:08:11;12.30;72.00
3919;DHT22;1974;48.670;8.994;2023-02-15T14:10:46;12.40;71.30
3919;DHT22;1974;48.670;8.994;2023-02-15T14:16:27;12.50;70.40
3919;DHT22;1974;48.670;8.994;2023-02-15T14:19:09;12.50;69.50
3919;DHT22;1974;48.670;8.994;2023-02-15T14:21:45;12.50;69.20
3919;DHT22;1974;48.670;8.994;2023-02-15T14:24:28;12.50;69.20
3919;DHT22;1974;48.670;8.994;2023-02-15T14:27:03;12.50;69.30
3919;DHT22;1974;48.670;8.994;2023-02-15T14:29:45;12.50;68.30
3919;DHT22;1974;48.670;8.994;2023-02-15T14:32:16;12.40;68.30
3919;DHT22;1974;48.670;8.994;2023-02-15T14:34:48;12.50;68.80
3919;DHT22;1974;48.670;8.994;2023-02-15T14:37:21;12.50;69.20
3919;DHT22;1974;48.670;8.994;2023-02-15T14:39:54;12.40;68.40
3919;DHT22;1974;48.670;8.994;2023-02-15T14:42:44;12.40;69.10
3919;DHT22;1974;48.670;8.994;2023-02-15T14:45:20;12.40;68.60
3919;DHT22;1974;48.670;8.994;2023-02-15T14:47:54;12.40;69.70
3919;DHT22;1974;48.670;8.994;2023-02-15T14:50:40;12.40;71.00
3919;DHT22;1974;48.670;8.994;2023-02-15T14:53:33;12.30;71.50
3919;DHT22;1974;48.670;8.994;2023-02-15T14:56:17;12.20;72.40
3919;DHT22;1974;48.670;8.994;2023-02-15T14:58:56;12.20;72.70
3919;DHT22;1974;48.670;8.994;2023-02-15T15:01:26;11.90;73.50
3919;DHT22;1974;48.670;8.994;2023-02-15T15:03:56;11.90;73.90
3919;DHT22;1974;48.670;8.994;2023-02-15T15:06:27;11.90;74.40
3919;DHT22;1974;48.670;8.994;2023-02-15T15:08:56;11.90;74.40
3919;DHT22;1974;48.670;8.994;2023-02-15T15:11:42;11.90;74.00
3919;DHT22;1974;48.670;8.994;2023-02-15T15:14:10;11.90;73.70
3919;DHT22;1974;48.670;8.994;2023-02-15T15:16:51;11.90;74.00
3919;DHT22;1974;48.670;8.994;2023-02-15T15:22:34;11.80;74.70
3919;DHT22;1974;48.670;8.994;2023-02-15T15:25:03;11.70;75.60
3919;DHT22;1974;48.670;8.994;2023-02-15T15:27:49;11.70;76.10
3919;DHT22;1974;48.670;8.994;2023-02-15T15:33:46;11.60;75.40
3919;DHT22;1974;48.670;8.994;2023-02-15T15:36:37;11.50;76.60
3919;DHT22;1974;48.670;8.994;2023-02-15T15:39:21;11.50;76.40
3919;DHT22;1974;48.670;8.994;2023-02-15T15:41:55;11.40;75.90
3919;DHT22;1974;48.670;8.994;2023-02-15T15:44:54;11.40;75.70
3919;DHT22;1974;48.670;8.994;2023-02-15T15:47:44;11.20;76.80
3919;DHT22;1974;48.670;8.994;2023-02-15T15:50:15;11.10;75.40
3919;DHT22;1974;48.670;8.994;2023-02-15T15:52:47;11.10;74.50
3919;DHT22;1974;48.670;8.994;2023-02-15T15:55:17;11.00;74.60
3919;DHT22;1974;48.670;8.994;2023-02-15T15:57:46;11.00;73.50
3919;DHT22;1974;48.670;8.994;2023-02-15T16:00:34;10.90;73.00
3919;DHT22;1974;48.670;8.994;2023-02-15T16:03:02;10.90;73.50
3919;DHT22;1974;48.670;8.994;2023-02-15T16:05:35;10.80;73.00
3919;DHT22;1974;48.670;8.994;2023-02-15T16:08:02;10.70;73.20
3919;DHT22;1974;48.670;8.994;2023-02-15T16:10:31;10.60;73.40
3919;DHT22;1974;48.670;8.994;2023-02-15T16:12:59;10.50;73.50
3919;DHT22;1974;48.670;8.994;2023-02-15T16:15:36;10.30;74.60
3919;DHT22;1974;48.670;8.994;2023-02-15T16:18:11;10.10;76.90
3919;DHT22;1974;48.670;8.994;2023-02-15T16:20:40;10.00;77.80
3919;DHT22;1974;48.670;8.994;2023-02-15T16:23:20;9.90;79.00
3919;DHT22;1974;48.670;8.994;2023-02-15T16:25:55;9.80;77.70
3919;DHT22;1974;48.670;8.994;2023-02-15T16:28:28;9.70;79.00
3919;DHT22;1974;48.670;8.994;2023-02-15T16:31:05;9.60;80.40
3919;DHT22;1974;48.670;8.994;2023-02-15T16:33:36;9.40;83.40
3919;DHT22;1974;48.670;8.994;2023-02-15T16:36:04;9.40;79.80
3919;DHT22;1974;48.670;8.994;2023-02-15T16:39:03;9.50;78.00
3919;DHT22;1974;48.670;8.994;2023-02-15T16:41:32;9.50;78.40
3919;DHT22;1974;48.670;8.994;2023-02-15T16:44:03;9.40;81.10
3919;DHT22;1974;48.670;8.994;2023-02-15T16:46:36;9.30;80.40
3919;DHT22;1974;48.670;8.994;2023-02-15T16:49:07;9.10;82.50
3919;DHT22;1974;48.670;8.994;2023-02-15T16:51:41;9.00;83.00
3919;DHT22;1974;48.670;8.994;2023-02-15T16:54:16;8.90;86.00
3919;DHT22;1974;48.670;8.994;2023-02-15T16:56:45;8.80;89.10
3919;DHT22;1974;48.670;8.994;2023-02-15T16:59:20;8.70;90.80
3919;DHT22;1974;48.670;8.994;2023-02-15T17:01:52;8.50;91.50